Andros — ZDNU5 — position and weather

sailwx.info

Track history (hours):
 
Tides and Currents Weather Stations Pressure Air Temp Water Temp Dewpoint Dewpoint Depression Visibility Wind Speed Wind Dir Waves Ship Positions

Andros

Last reported at 2017-Oct-17 03:09 UTC. Time now 2017-Oct-17 04:22 UTC.
Position N 35°52' W 005°35'.

Length 91 m; draft 5.6 m.

Type: Tanker. MMSI: 236637000.

Date/timePositionNaut miles runAvg speedWind from/ knotsBaromVisibWave heightAir tempDewpointWater temp
2017-Oct-17 03:09N 35°52' W 005°35'1 5.9
2017-Oct-17 03:00N 35°53' W 005°34'5 1.4
2017-Oct-16 23:39N 35°56' W 005°30'2 9.4
2017-Oct-16 23:28N 35°58' W 005°29'13 6.1
2017-Oct-16 21:23N 36°09' W 005°22'3 0.2
2017-Oct-16 06:09N 36°06' W 005°22'0 0.1
2017-Oct-16 05:59N 36°06' W 005°22'0 0.0
2017-Oct-16 00:03N 36°06' W 005°22'0 0.1
2017-Oct-16 00:00N 36°06' W 005°22'1 1.8
2017-Oct-15 23:30N 36°06' W 005°21'3 6.2
2017-Oct-15 23:00N 36°08' W 005°19'0 0.0
2017-Oct-15 22:30N 36°08' W 005°19'0 0.1
2017-Oct-15 22:00N 36°08' W 005°19'0 0.9
2017-Oct-15 21:30N 36°08' W 005°19'3 5.4
2017-Oct-15 21:00N 36°06' W 005°21'3 5.9
2017-Oct-15 20:30N 36°08' W 005°22'1 0.0
2017-Oct-14 14:46N 36°09' W 005°23'0 0.1
2017-Oct-14 13:55N 36°09' W 005°23'0 0.0
2017-Oct-14 13:19N 36°09' W 005°23'0 0.0
2017-Oct-14 02:31N 36°09' W 005°23'0 0.1
2017-Oct-14 02:28N 36°09' W 005°23'0 0.0
2017-Oct-13 22:55N 36°09' W 005°23'0 0.0
2017-Oct-13 21:43N 36°09' W 005°23'0 0.0
2017-Oct-13 05:35N 36°09' W 005°22'0 0.1
2017-Oct-13 05:29N 36°09' W 005°22'0 0.0
2017-Oct-13 01:39N 36°09' W 005°22'1 4.0
2017-Oct-13 01:30N 36°09' W 005°23'4 8.9
2017-Oct-13 01:00N 36°04' W 005°23'5 9.4
2017-Oct-13 00:30N 35°60' W 005°25'5 9.1
2017-Oct-13 00:00N 35°56' W 005°28'  
Track history (hours):
 
Tides and Currents Weather Stations Pressure Air Temp Water Temp Dewpoint Dewpoint Depression Visibility Wind Speed Wind Dir Waves Ship Positions

Andros

Last reported at 2017-Oct-17 03:09 UTC. Time now 2017-Oct-17 04:22 UTC.
Position N 35°52' W 005°35'.

Length 91 m; draft 5.6 m.

Type: Tanker. MMSI: 236637000.

Date/timePositionNaut miles runAvg speedWind from/ knotsBaromVisibWave heightAir tempDewpointWater temp
2017-Oct-17 03:09N 35°52' W 005°35'1 5.9
2017-Oct-17 03:00N 35°53' W 005°34'5 1.4
2017-Oct-16 23:39N 35°56' W 005°30'2 9.4
2017-Oct-16 23:28N 35°58' W 005°29'13 6.1
2017-Oct-16 21:23N 36°09' W 005°22'3 0.2
2017-Oct-16 06:09N 36°06' W 005°22'0 0.1
2017-Oct-16 05:59N 36°06' W 005°22'0 0.0
2017-Oct-16 00:03N 36°06' W 005°22'0 0.1
2017-Oct-16 00:00N 36°06' W 005°22'1 1.8
2017-Oct-15 23:30N 36°06' W 005°21'3 6.2
2017-Oct-15 23:00N 36°08' W 005°19'0 0.0
2017-Oct-15 22:30N 36°08' W 005°19'0 0.1
2017-Oct-15 22:00N 36°08' W 005°19'0 0.9
2017-Oct-15 21:30N 36°08' W 005°19'3 5.4
2017-Oct-15 21:00N 36°06' W 005°21'3 5.9
2017-Oct-15 20:30N 36°08' W 005°22'1 0.0
2017-Oct-14 14:46N 36°09' W 005°23'0 0.1
2017-Oct-14 13:55N 36°09' W 005°23'0 0.0
2017-Oct-14 13:19N 36°09' W 005°23'0 0.0
2017-Oct-14 02:31N 36°09' W 005°23'0 0.1
2017-Oct-14 02:28N 36°09' W 005°23'0 0.0
2017-Oct-13 22:55N 36°09' W 005°23'0 0.0
2017-Oct-13 21:43N 36°09' W 005°23'0 0.0
2017-Oct-13 05:35N 36°09' W 005°22'0 0.1
2017-Oct-13 05:29N 36°09' W 005°22'0 0.0
2017-Oct-13 01:39N 36°09' W 005°22'1 4.0
2017-Oct-13 01:30N 36°09' W 005°23'4 8.9
2017-Oct-13 01:00N 36°04' W 005°23'5 9.4
2017-Oct-13 00:30N 35°60' W 005°25'5 9.1
2017-Oct-13 00:00N 35°56' W 005°28'  

Dump ship's entire track history